Time;durP1;ratioP1;P1;durP2;ratioP2;P2;SDS_P1;SDS_P2;PMS_P1;PMS_P2;Temp;Humidity;BMP_temperature;BMP_pressure;BME280_temperature;BME280_humidity;BME280_pressure;Samples;Min_cycle;Max_cycle;Signal;HPM_P1;HPM_P2
2022/10/02 00:01:49;;;;;;;1.88;1.20;;;;;;;19.28;100.00;96590.88;5046445;28;20073;-46
2022/10/02 00:04:22;;;;;;;1.13;1.02;;;;;;;19.37;100.00;96592.34;5046841;28;20084;-45
2022/10/02 00:06:53;;;;;;;2.00;1.15;;;;;;;19.69;100.00;96585.56;5045782;28;20112;-42
2022/10/02 00:09:27;;;;;;;1.45;1.30;;;;;;;19.90;100.00;96573.94;5044832;28;20084;-40
2022/10/02 00:11:57;;;;;;;2.20;1.10;;;;;;;19.44;100.00;96580.69;5045199;28;20085;-48
2022/10/02 00:14:29;;;;;;;2.65;1.30;;;;;;;20.05;100.00;96579.13;5047280;28;20080;-47
2022/10/02 00:17:00;;;;;;;2.53;1.10;;;;;;;19.75;100.00;96586.59;5044154;28;20076;-42
2022/10/02 00:19:28;;;;;;;4.90;1.00;;;;;;;19.20;100.00;96597.16;5045168;28;20080;-41
2022/10/02 00:22:17;;;;;;;3.17;1.08;;;;;;;19.37;100.00;96605.72;5045562;28;20128;-46
2022/10/02 00:24:53;;;;;;;1.80;1.17;;;;;;;18.88;100.00;96603.94;5043576;28;20091;-45
2022/10/02 00:27:34;;;;;;;3.45;1.20;;;;;;;19.49;100.00;96606.00;5045932;28;20085;-47
2022/10/02 00:30:04;;;;;;;2.53;1.27;;;;;;;19.15;100.00;96607.63;5045630;28;20092;-44
2022/10/02 00:32:37;;;;;;;2.13;1.10;;;;;;;18.70;100.00;96618.56;5042571;28;20085;-41
2022/10/02 00:35:31;;;;;;;3.47;1.45;;;;;;;19.18;100.00;96617.94;5045184;28;20088;-43
2022/10/02 00:38:06;;;;;;;3.65;1.25;;;;;;;18.69;100.00;96629.44;5044233;28;20543;-45
2022/10/02 00:40:47;;;;;;;3.60;1.23;;;;;;;18.90;100.00;96636.66;5045955;28;20080;-41
2022/10/02 00:43:23;;;;;;;3.15;1.30;;;;;;;19.37;100.00;96638.66;5045279;28;20084;-41
2022/10/02 00:46:17;;;;;;;6.43;1.35;;;;;;;18.69;100.00;96648.97;5045778;28;20069;-43
2022/10/02 00:48:51;;;;;;;3.92;1.17;;;;;;;18.46;100.00;96641.13;5045841;28;20084;-46
2022/10/02 00:51:37;;;;;;;2.25;1.38;;;;;;;18.64;100.00;96659.38;5045614;28;20088;-40
2022/10/02 00:54:15;;;;;;;2.70;1.23;;;;;;;18.32;100.00;96654.53;5045826;28;20091;-43
2022/10/02 00:56:52;;;;;;;3.10;1.20;;;;;;;18.81;100.00;96641.28;5044632;28;20096;-45
2022/10/02 00:59:49;;;;;;;5.53;1.20;;;;;;;18.32;100.00;96659.88;5045343;28;20084;-44
2022/10/02 01:02:47;;;;;;;3.50;1.45;;;;;;;18.38;100.00;96661.78;5045784;28;20574;-46
2022/10/02 01:05:16;;;;;;;5.00;1.63;;;;;;;18.58;100.00;96667.31;5045355;28;20080;-45
2022/10/02 01:07:46;;;;;;;7.18;1.60;;;;;;;19.17;100.00;96659.09;5046104;28;20472;-47
2022/10/02 01:10:15;;;;;;;;;;;;;;;19.09;100.00;96645.84;5046443;28;20080;-45
2022/10/02 01:12:45;;;;;;;2.30;1.30;;;;;;;18.98;100.00;96649.88;5044723;28;19963;-41
2022/10/02 01:15:14;;;;;;;2.95;1.20;;;;;;;18.67;100.00;96650.97;5043548;28;20084;-41
2022/10/02 01:17:43;;;;;;;2.80;1.30;;;;;;;18.99;100.00;96648.84;5042268;28;20482;-41
2022/10/02 01:20:16;;;;;;;2.72;1.30;;;;;;;18.87;100.00;96653.88;5044667;28;20598;-41
2022/10/02 01:22:49;;;;;;;1.55;1.10;;;;;;;19.28;100.00;96660.38;5042097;28;20077;-46
2022/10/02 01:25:19;;;;;;;2.45;1.30;;;;;;;18.61;100.00;96673.13;5048748;28;20531;-45
2022/10/02 01:27:47;;;;;;;3.53;1.70;;;;;;;19.01;100.00;96659.34;5047418;28;20531;-47
2022/10/02 01:30:18;;;;;;;2.45;1.20;;;;;;;19.35;100.00;96659.41;5049530;28;20511;-45
2022/10/02 01:32:50;;;;;;;4.63;1.50;;;;;;;19.00;100.00;96663.03;5046459;28;20535;-41
2022/10/02 01:35:20;;;;;;;3.50;1.23;;;;;;;19.14;100.00;96659.47;5050203;28;20088;-45
2022/10/02 01:37:50;;;;;;;2.53;1.50;;;;;;;19.63;100.00;96648.72;5050609;28;20547;-46
2022/10/02 01:40:28;;;;;;;1.73;1.20;;;;;;;19.39;100.00;96631.25;5048781;28;20071;-41
2022/10/02 01:43:00;;;;;;;2.63;1.38;;;;;;;19.39;100.00;96627.75;5048857;28;20099;-43
2022/10/02 01:45:40;;;;;;;2.75;1.40;;;;;;;19.81;100.00;96625.97;5048828;28;20104;-43
2022/10/02 01:48:13;;;;;;;3.42;1.25;;;;;;;19.24;100.00;96635.88;5049957;28;20088;-39
2022/10/02 01:50:49;;;;;;;1.85;1.20;;;;;;;19.17;100.00;96625.16;5044548;28;20085;-42
2022/10/02 01:53:21;;;;;;;2.78;1.40;;;;;;;19.57;100.00;96622.72;5049592;28;20531;-42
2022/10/02 01:56:00;;;;;;;4.45;1.42;;;;;;;19.50;100.00;96621.84;5047812;28;20081;-42
2022/10/02 01:58:37;;;;;;;3.20;1.35;;;;;;;19.18;100.00;96618.78;5049269;28;20084;-44
2022/10/02 02:01:12;;;;;;;2.22;1.42;;;;;;;19.92;100.00;96609.31;5048310;28;20095;-45
2022/10/02 02:03:48;;;;;;;2.03;1.30;;;;;;;19.88;100.00;96624.97;5043341;28;20092;-46
2022/10/02 02:06:23;;;;;;;2.88;1.40;;;;;;;19.70;100.00;96626.53;5048284;28;20107;-41
2022/10/02 02:09:00;;;;;;;2.38;1.20;;;;;;;19.37;100.00;96640.47;5048246;28;20500;-44
2022/10/02 02:11:30;;;;;;;2.90;1.42;;;;;;;19.77;100.00;96654.16;5050580;28;20554;-48
2022/10/02 02:14:02;;;;;;;6.77;1.47;;;;;;;19.38;100.00;96651.00;5048124;28;20642;-43
2022/10/02 02:16:33;;;;;;;3.70;1.50;;;;;;;19.58;100.00;96651.13;5047425;28;20069;-43
2022/10/02 02:19:06;;;;;;;2.20;1.20;;;;;;;19.44;100.00;96649.38;5046578;28;20068;-43
2022/10/02 02:21:37;;;;;;;4.82;1.73;;;;;;;19.95;100.00;96651.75;5049281;28;20084;-43
2022/10/02 02:24:09;;;;;;;4.28;1.45;;;;;;;19.55;100.00;96654.19;5048615;28;20083;-41
2022/10/02 02:26:42;;;;;;;3.33;1.25;;;;;;;19.24;100.00;96659.13;5047825;28;20080;-40
2022/10/02 02:29:12;;;;;;;1.77;1.20;;;;;;;18.92;100.00;96651.44;5047928;28;20080;-46
2022/10/02 02:31:44;;;;;;;1.45;1.20;;;;;;;19.44;100.00;96647.56;5048008;28;20093;-41
2022/10/02 02:34:15;;;;;;;3.55;1.30;;;;;;;19.73;100.00;96640.34;5047819;28;20084;-42
2022/10/02 02:36:45;;;;;;;3.72;1.42;;;;;;;20.25;100.00;96630.06;5048566;28;20476;-42
2022/10/02 02:39:15;;;;;;;3.08;1.30;;;;;;;19.35;100.00;96634.53;5047651;28;20081;-42
2022/10/02 02:41:48;;;;;;;3.17;1.58;;;;;;;20.25;100.00;96624.69;5048157;28;20545;-43
2022/10/02 02:44:20;;;;;;;2.58;1.40;;;;;;;19.91;100.00;96631.78;5047955;28;20084;-41
2022/10/02 02:47:04;;;;;;;2.95;1.58;;;;;;;20.40;100.00;96636.06;5046996;28;20077;-45
2022/10/02 02:49:43;;;;;;;3.97;1.42;;;;;;;20.26;100.00;96626.34;5046993;28;20483;-44
2022/10/02 02:52:14;;;;;;;2.28;1.40;;;;;;;20.20;100.00;96627.16;5047127;28;20544;-42
2022/10/02 02:54:46;;;;;;;5.25;1.25;;;;;;;19.82;100.00;96628.47;5048401;28;20528;-41
2022/10/02 02:57:18;;;;;;;3.10;1.30;;;;;;;19.44;100.00;96636.00;5047896;28;20084;-44
2022/10/02 02:59:48;;;;;;;4.88;1.48;;;;;;;19.65;100.00;96633.31;5048486;28;20087;-46
2022/10/02 03:02:16;;;;;;;3.08;1.20;;;;;;;19.71;100.00;96650.41;5043747;28;20476;-46
2022/10/02 03:04:44;;;;;;;3.88;1.70;;;;;;;20.03;100.00;96648.13;5047786;28;20478;-44
2022/10/02 03:07:16;;;;;;;4.30;1.30;;;;;;;20.29;100.00;96648.19;5045309;28;20076;-43
2022/10/02 03:09:52;;;;;;;3.00;1.30;;;;;;;20.00;100.00;96659.22;5048368;28;20082;-43
2022/10/02 03:12:32;;;;;;;4.43;1.50;;;;;;;20.33;100.00;96651.28;5047528;28;20068;-44
2022/10/02 03:15:22;;;;;;;4.32;1.25;;;;;;;20.43;100.00;96657.09;5045829;28;20425;-44
2022/10/02 03:18:12;;;;;;;2.97;1.42;;;;;;;19.92;100.00;96658.34;5047535;28;20080;-44
2022/10/02 03:20:41;;;;;;;;;;;;;;;20.66;100.00;96653.28;5047763;28;20084;-45
2022/10/02 03:23:16;;;;;;;2.55;1.27;;;;;;;20.30;100.00;96654.38;5046618;28;20497;-44
2022/10/02 03:25:52;;;;;;;4.72;1.30;;;;;;;20.30;100.00;96659.72;5046988;28;20535;-41
2022/10/02 03:28:27;;;;;;;4.88;1.42;;;;;;;20.68;100.00;96652.06;5044411;28;20085;-45
2022/10/02 03:31:16;;;;;;;2.10;1.20;;;;;;;21.04;100.00;96640.13;5046284;28;20088;-46
2022/10/02 03:33:45;;;;;;;2.67;1.45;;;;;;;20.96;100.00;96637.66;5048566;28;20527;-46
2022/10/02 03:36:16;;;;;;;4.60;1.30;;;;;;;20.46;100.00;96642.47;5047249;28;20080;-41
2022/10/02 03:38:45;;;;;;;5.18;1.40;;;;;;;20.50;100.00;96641.88;5048037;28;20119;-45
2022/10/02 03:41:33;;;;;;;3.88;1.33;;;;;;;20.11;100.00;96638.03;5045240;28;20076;-42
2022/10/02 03:44:03;;;;;;;2.72;1.50;;;;;;;21.31;100.00;96622.97;5046550;28;20084;-42
2022/10/02 03:46:31;;;;;;;3.53;1.30;;;;;;;20.33;100.00;96625.31;5047228;28;20095;-44
2022/10/02 03:49:01;;;;;;;3.05;1.40;;;;;;;20.50;100.00;96631.19;5045702;28;20559;-44
2022/10/02 03:51:29;;;;;;;2.97;1.42;;;;;;;19.94;100.00;96634.06;5047137;28;20088;-45
2022/10/02 03:53:58;;;;;;;6.32;1.63;;;;;;;19.38;100.00;96634.97;5046535;28;20084;-42
2022/10/02 03:56:34;;;;;;;6.00;1.50;;;;;;;20.37;100.00;96623.06;5047151;28;20091;-45
2022/10/02 03:59:05;;;;;;;7.03;1.80;;;;;;;20.09;100.00;96618.66;5045667;28;20083;-41
2022/10/02 04:01:36;;;;;;;4.65;1.48;;;;;;;20.40;100.00;96630.72;5046427;28;20090;-42
2022/10/02 04:04:08;;;;;;;6.03;1.50;;;;;;;20.29;100.00;96625.94;5044304;28;20080;-44
2022/10/02 04:06:42;;;;;;;4.18;1.30;;;;;;;19.71;100.00;96633.53;5044896;28;20076;-45
2022/10/02 04:09:13;;;;;;;3.20;1.30;;;;;;;19.66;100.00;96629.59;5045550;28;20085;-44
2022/10/02 04:11:44;;;;;;;6.20;1.50;;;;;;;19.68;100.00;96635.59;5044994;28;20091;-43
2022/10/02 04:14:16;;;;;;;3.58;1.40;;;;;;;19.89;100.00;96640.03;5044166;28;20069;-47
2022/10/02 04:16:49;;;;;;;5.75;1.48;;;;;;;19.99;100.00;96642.31;5042002;28;20081;-40
2022/10/02 04:19:21;;;;;;;5.10;1.40;;;;;;;20.00;100.00;96643.16;5045601;28;21078;-43
2022/10/02 04:21:54;;;;;;;3.60;1.60;;;;;;;19.72;100.00;96646.72;5045861;28;20463;-43
2022/10/02 04:24:29;;;;;;;3.60;1.50;;;;;;;19.91;100.00;96637.94;5045339;28;20516;-43
2022/10/02 04:27:02;;;;;;;6.50;1.60;;;;;;;19.92;100.00;96638.78;5043789;28;20121;-43
2022/10/02 04:29:36;;;;;;;4.25;1.48;;;;;;;19.78;100.00;96637.88;5048205;28;20076;-41
2022/10/02 04:32:12;;;;;;;8.00;1.67;;;;;;;20.09;100.00;96633.91;5046489;28;20457;-40
2022/10/02 04:34:41;;;;;;;3.00;1.50;;;;;;;20.02;100.00;96641.09;5046873;28;20479;-42
2022/10/02 04:37:26;;;;;;;5.15;1.85;;;;;;;20.42;100.00;96633.19;5045000;28;20527;-42
2022/10/02 04:40:07;;;;;;;2.47;1.30;;;;;;;19.91;100.00;96632.59;5041708;28;20057;-44
2022/10/02 04:42:47;;;;;;;4.90;1.48;;;;;;;20.60;100.00;96636.97;5043487;28;20083;-46
2022/10/02 04:45:32;;;;;;;5.70;1.80;;;;;;;19.80;100.00;96643.06;5045210;28;20077;-42
2022/10/02 04:48:20;;;;;;;4.47;1.50;;;;;;;20.98;100.00;96640.94;5045558;28;20089;-43
2022/10/02 04:50:51;;;;;;;9.35;1.73;;;;;;;20.59;100.00;96645.22;5044672;28;20073;-47
2022/10/02 04:53:40;;;;;;;7.35;1.58;;;;;;;19.75;100.00;96649.00;5043375;28;20546;-41
2022/10/02 04:56:20;;;;;;;2.97;1.50;;;;;;;20.32;100.00;96655.00;5042351;28;20069;-44
2022/10/02 04:58:58;;;;;;;;;;;;;;;20.91;100.00;96653.50;5040390;28;20494;-41
2022/10/02 05:01:34;;;;;;;5.03;1.60;;;;;;;20.30;100.00;96640.97;5041172;28;19956;-45
2022/10/02 05:04:17;;;;;;;5.00;1.45;;;;;;;20.43;100.00;96640.19;5043953;28;20068;-41
2022/10/02 05:07:04;;;;;;;3.95;1.55;;;;;;;20.03;100.00;96651.59;5043590;28;20084;-47
2022/10/02 05:09:39;;;;;;;4.97;1.70;;;;;;;20.44;100.00;96649.88;5040449;28;20073;-41
2022/10/02 05:12:22;;;;;;;4.43;1.60;;;;;;;20.82;100.00;96643.00;5044051;28;20080;-41
2022/10/02 05:15:07;;;;;;;5.97;1.50;;;;;;;21.06;100.00;96644.25;5046153;28;20081;-42
2022/10/02 05:18:01;;;;;;;4.10;1.60;;;;;;;20.62;100.00;96648.31;5043518;28;20091;-43
2022/10/02 05:20:49;;;;;;;5.30;1.88;;;;;;;20.44;100.00;96649.88;5044147;28;20084;-43
2022/10/02 05:23:40;;;;;;;5.47;1.75;;;;;;;21.30;100.00;96640.13;5044471;28;20570;-42
2022/10/02 05:26:19;;;;;;;5.47;1.60;;;;;;;21.40;100.00;96636.19;5042312;28;20582;-47
2022/10/02 05:29:12;;;;;;;5.55;1.75;;;;;;;20.59;100.00;96643.38;5045754;28;20555;-44
2022/10/02 05:31:51;;;;;;;3.80;1.50;;;;;;;21.21;100.00;96641.34;5039475;28;20093;-43
2022/10/02 05:34:39;;;;;;;4.05;1.50;;;;;;;20.73;100.00;96641.53;5044690;28;20083;-47
2022/10/02 05:37:20;;;;;;;4.18;1.75;;;;;;;20.62;100.00;96656.34;5044652;28;20088;-42
2022/10/02 05:39:53;;;;;;;3.75;1.67;;;;;;;20.20;100.00;96651.25;5041765;28;20091;-45
2022/10/02 05:42:28;;;;;;;5.85;1.90;;;;;;;20.24;100.00;96641.81;5044976;28;20079;-42
2022/10/02 05:45:01;;;;;;;5.07;1.75;;;;;;;20.48;100.00;96646.63;5044400;28;20118;-44
2022/10/02 05:47:31;;;;;;;6.53;1.60;;;;;;;19.49;100.00;96657.66;5043968;28;20085;-45
2022/10/02 05:50:04;;;;;;;5.07;2.20;;;;;;;20.35;100.00;96651.94;5045391;28;20061;-42
2022/10/02 05:52:36;;;;;;;4.70;1.90;;;;;;;20.51;100.00;96654.28;5045698;28;20084;-42
2022/10/02 05:55:12;;;;;;;5.45;1.50;;;;;;;20.08;100.00;96654.50;5042349;28;20616;-47
2022/10/02 05:57:42;;;;;;;5.85;1.55;;;;;;;20.11;100.00;96651.44;5041341;28;20118;-45
2022/10/02 06:00:20;;;;;;;6.30;1.55;;;;;;;19.94;100.00;96643.94;5043673;28;20071;-42
2022/10/02 06:02:56;;;;;;;4.28;1.45;;;;;;;20.28;100.00;96645.72;5046218;28;20091;-41
2022/10/02 06:05:30;;;;;;;5.93;1.90;;;;;;;19.52;100.00;96656.44;5042711;28;20088;-41
2022/10/02 06:08:01;;;;;;;3.75;1.70;;;;;;;19.32;100.00;96664.31;5046211;28;20091;-44
2022/10/02 06:10:33;;;;;;;6.75;1.67;;;;;;;19.50;100.00;96659.31;5046950;28;20436;-43
2022/10/02 06:13:07;;;;;;;3.10;1.40;;;;;;;18.97;100.00;96658.91;5052028;28;20083;-42
2022/10/02 06:15:40;;;;;;;5.28;1.50;;;;;;;19.24;100.00;96662.63;5048548;28;20076;-46
2022/10/02 06:18:12;;;;;;;2.92;1.60;;;;;;;18.92;100.00;96667.47;5050721;28;20077;-44
2022/10/02 06:20:46;;;;;;;2.63;1.38;;;;;;;19.62;100.00;96667.63;5046167;28;20092;-43
2022/10/02 06:23:19;;;;;;;5.75;1.55;;;;;;;18.98;100.00;96660.56;5052223;28;20073;-39
2022/10/02 06:25:50;;;;;;;4.03;1.35;;;;;;;19.19;100.00;96659.69;5052022;28;20167;-45
2022/10/02 06:28:22;;;;;;;4.90;1.65;;;;;;;19.47;100.00;96669.56;5052126;28;20110;-42
2022/10/02 06:30:56;;;;;;;4.75;1.67;;;;;;;19.68;100.00;96661.50;5050403;28;20563;-40
2022/10/02 06:33:26;;;;;;;3.00;1.35;;;;;;;18.98;100.00;96658.69;5049687;28;20045;-43
2022/10/02 06:36:33;;;;;;;6.55;1.48;;;;;;;18.67;100.00;96659.00;5048237;28;20519;-43
2022/10/02 06:39:11;;;;;;;6.15;1.50;;;;;;;18.64;100.00;96662.06;5047906;28;20079;-41
2022/10/02 06:41:46;;;;;;;3.95;1.20;;;;;;;18.46;100.00;96667.00;5041301;28;20084;-42
2022/10/02 06:44:20;;;;;;;2.50;1.20;;;;;;;18.87;100.00;96667.25;5049151;28;20081;-44
2022/10/02 06:46:57;;;;;;;3.03;1.40;;;;;;;18.49;100.00;96659.44;5044829;28;20499;-44
2022/10/02 06:49:35;;;;;;;2.88;1.20;;;;;;;18.13;100.00;96664.75;5049386;28;20076;-43
2022/10/02 06:52:12;;;;;;;2.47;1.15;;;;;;;18.60;100.00;96675.97;5049154;28;20111;-43
2022/10/02 06:54:48;;;;;;;2.50;1.25;;;;;;;18.84;100.00;96664.94;5047150;28;20092;-45
2022/10/02 06:57:26;;;;;;;3.22;1.40;;;;;;;18.31;100.00;96664.38;5049731;28;20468;-42
2022/10/02 07:00:04;;;;;;;4.95;1.83;;;;;;;18.84;100.00;96667.63;5038215;28;20064;-41
2022/10/02 07:02:56;;;;;;;3.72;1.63;;;;;;;19.11;100.00;96657.19;5047447;28;20069;-42
2022/10/02 07:05:48;;;;;;;3.47;1.40;;;;;;;19.60;100.00;96656.28;5050491;28;20513;-41
2022/10/02 07:08:26;;;;;;;3.25;1.30;;;;;;;19.56;100.00;96663.06;5048303;28;20099;-41
2022/10/02 07:10:59;;;;;;;3.30;1.42;;;;;;;19.18;100.00;96666.06;5047585;28;20096;-44
2022/10/02 07:13:37;;;;;;;3.63;1.50;;;;;;;20.02;100.00;96676.72;5050984;28;20099;-42
2022/10/02 07:16:23;;;;;;;4.75;1.48;;;;;;;20.03;100.00;96678.38;5049450;28;20072;-45
2022/10/02 07:19:19;;;;;;;4.32;1.55;;;;;;;19.79;100.00;96677.03;5050080;28;20073;-42
2022/10/02 07:21:57;;;;;;;4.28;1.50;;;;;;;19.86;100.00;96683.22;5041773;28;20072;-49
2022/10/02 07:24:43;;;;;;;4.72;1.45;;;;;;;20.66;100.00;96672.03;5047824;28;20095;-47
2022/10/02 07:27:17;;;;;;;6.47;1.58;;;;;;;20.86;100.00;96675.59;5049899;28;20080;-46
2022/10/02 07:29:50;;;;;;;6.80;1.70;;;;;;;20.42;100.00;96679.56;5049822;28;20562;-46
2022/10/02 07:32:51;;;;;;;6.55;1.60;;;;;;;20.32;100.00;96685.28;5049932;28;20068;-42
2022/10/02 07:35:38;;;;;;;3.60;1.60;;;;;;;20.48;100.00;96686.81;5050126;28;20068;-41
2022/10/02 07:38:43;;;;;;;7.65;1.55;;;;;;;21.63;100.00;96684.06;5050267;28;20084;-42
2022/10/02 07:41:47;;;;;;;3.85;1.40;;;;;;;22.15;100.00;96676.94;5031596;28;20087;-41
2022/10/02 07:44:43;;;;;;;4.82;1.50;;;;;;;21.96;100.00;96684.84;5041099;28;20080;-45
2022/10/02 07:47:22;;;;;;;7.40;2.35;;;;;;;21.18;100.00;96684.69;5048596;28;20099;-43
2022/10/02 07:49:54;;;;;;;7.05;1.80;;;;;;;21.04;100.00;96674.97;5050716;28;20088;-46
2022/10/02 07:52:30;;;;;;;4.65;1.52;;;;;;;22.20;100.00;96671.78;5050087;28;20068;-42
2022/10/02 07:55:07;;;;;;;5.07;1.73;;;;;;;22.29;100.00;96675.84;5049294;28;20079;-44
2022/10/02 07:57:42;;;;;;;9.98;2.03;;;;;;;22.67;100.00;96666.97;5045078;28;20079;-42
2022/10/02 08:00:13;;;;;;;3.92;1.70;;;;;;;22.61;100.00;96666.00;5048999;28;20095;-45
2022/10/02 08:02:51;;;;;;;4.30;1.90;;;;;;;23.23;100.00;96660.84;5050188;28;20068;-42
2022/10/02 08:05:22;;;;;;;4.35;2.03;;;;;;;22.11;100.00;96678.38;5050203;28;20076;-42
2022/10/02 08:07:54;;;;;;;5.03;1.98;;;;;;;22.97;100.00;96659.16;5049588;28;20527;-43
2022/10/02 08:10:25;;;;;;;7.25;1.85;;;;;;;23.36;100.00;96654.50;5050191;28;20056;-42
2022/10/02 08:13:03;;;;;;;5.47;1.98;;;;;;;23.45;100.00;96655.88;5049438;28;20096;-45
2022/10/02 08:15:37;;;;;;;4.90;1.92;;;;;;;23.31;100.00;96657.88;5048209;28;20076;-42
2022/10/02 08:18:14;;;;;;;5.68;1.98;;;;;;;23.17;100.00;96659.03;5045253;28;20103;-43
2022/10/02 08:21:02;;;;;;;3.88;1.90;;;;;;;23.25;100.00;96650.66;5042694;28;20118;-45
2022/10/02 08:23:36;;;;;;;6.15;1.98;;;;;;;22.75;100.00;96653.28;5049129;28;20084;-46
2022/10/02 08:26:08;;;;;;;6.40;2.10;;;;;;;22.02;100.00;96658.97;5048562;28;20516;-45
2022/10/02 08:28:43;;;;;;;3.78;1.65;;;;;;;22.74;100.00;96652.44;5049667;28;20572;-45
2022/10/02 08:31:13;;;;;;;6.82;2.00;;;;;;;22.45;100.00;96656.56;5047619;28;20065;-42
2022/10/02 08:33:42;;;;;;;6.15;2.20;;;;;;;22.37;100.00;96658.69;5048940;28;20076;-42
2022/10/02 08:36:43;;;;;;;6.13;1.80;;;;;;;21.99;100.00;96665.63;5048796;28;20470;-43
2022/10/02 08:39:23;;;;;;;4.88;1.90;;;;;;;23.57;100.00;96654.13;5033763;28;20107;-42
2022/10/02 08:42:16;;;;;;;8.82;2.00;;;;;;;23.07;100.00;96653.31;5048315;28;20100;-45
2022/10/02 08:45:20;;;;;;;7.53;2.17;;;;;;;23.34;100.00;96657.44;5013463;28;20084;-43
2022/10/02 08:48:32;;;;;;;5.50;1.80;;;;;;;23.40;100.00;96651.16;5043608;28;20504;-42
2022/10/02 08:51:30;;;;;;;4.57;1.83;;;;;;;23.46;100.00;96650.25;5048236;28;20079;-42
2022/10/02 08:54:38;;;;;;;5.25;2.03;;;;;;;21.92;100.00;96654.06;5038150;28;20068;-43
2022/10/02 08:57:18;;;;;;;4.30;2.10;;;;;;;22.88;100.00;96645.16;5018002;28;20095;-43
2022/10/02 09:00:13;;;;;;;4.60;2.05;;;;;;;23.09;100.00;96633.22;5046140;28;20468;-46
2022/10/02 09:03:24;;;;;;;6.47;1.90;;;;;;;23.54;100.00;96624.94;5044469;28;20531;-42
2022/10/02 09:06:31;;;;;;;4.45;1.60;;;;;;;24.03;100.00;96616.97;5048855;28;20083;-47
2022/10/02 09:09:44;;;;;;;7.15;2.05;;;;;;;23.43;100.00;96613.03;5048315;28;20076;-46
2022/10/02 09:12:57;;;;;;;6.53;1.85;;;;;;;22.87;100.00;96619.28;5048528;28;20084;-43
2022/10/02 09:15:40;;;;;;;5.30;1.73;;;;;;;24.00;100.00;96609.34;5022194;28;20089;-45
2022/10/02 09:18:21;;;;;;;5.63;2.10;;;;;;;23.80;100.00;96617.66;5047474;28;20540;-43
2022/10/02 09:21:14;;;;;;;9.88;2.30;;;;;;;23.35;100.00;96624.06;5049206;28;20457;-43
2022/10/02 09:24:11;;;;;;;5.05;2.17;;;;;;;23.89;100.00;96610.94;5049062;28;20076;-43
2022/10/02 09:26:52;;;;;;;4.78;1.80;;;;;;;24.19;100.00;96602.03;5045498;28;20064;-42
2022/10/02 09:29:55;;;;;;;7.82;1.85;;;;;;;24.55;100.00;96593.91;5047218;28;20081;-46
2022/10/02 09:33:02;;;;;;;6.05;2.10;;;;;;;24.66;100.00;96576.13;4984347;28;20203;-42
2022/10/02 09:36:01;;;;;;;5.38;1.75;;;;;;;24.31;100.00;96578.69;5043901;28;20088;-46
2022/10/02 09:38:57;;;;;;;6.85;1.60;;;;;;;23.79;100.00;96583.69;5047937;28;20081;-42
2022/10/02 09:41:54;;;;;;;5.72;2.20;;;;;;;24.38;100.00;96576.72;5044737;28;20080;-41
2022/10/02 09:44:43;;;;;;;6.00;1.75;;;;;;;23.92;100.00;96572.78;5043787;28;20092;-44
2022/10/02 09:47:48;;;;;;;4.38;1.65;;;;;;;23.85;100.00;96566.66;5049541;28;20064;-41
2022/10/02 09:50:47;;;;;;;6.75;2.03;;;;;;;24.47;100.00;96566.47;5045711;28;20522;-41
2022/10/02 09:53:54;;;;;;;4.18;1.90;;;;;;;24.85;100.00;96553.41;5052157;28;20111;-42
2022/10/02 09:57:01;;;;;;;7.70;2.03;;;;;;;24.82;100.00;96555.75;5052495;28;20083;-41
2022/10/02 09:59:41;;;;;;;5.43;2.20;;;;;;;24.99;100.00;96545.09;5042633;28;20076;-42
2022/10/02 10:02:53;;;;;;;6.32;2.03;;;;;;;25.67;100.00;96547.19;5051600;28;20073;-45
2022/10/02 10:06:09;;;;;;;6.28;2.17;;;;;;;25.40;100.00;96546.88;5050679;28;20467;-41
2022/10/02 10:08:49;;;;;;;8.02;2.15;;;;;;;25.83;100.00;96537.53;5025073;28;20076;-42
2022/10/02 10:11:38;;;;;;;6.57;2.20;;;;;;;25.37;100.00;96541.13;5019416;28;20069;-41
2022/10/02 10:14:24;;;;;;;5.45;1.88;;;;;;;25.07;100.00;96536.66;5043061;28;20212;-44
2022/10/02 10:17:43;;;;;;;3.90;1.95;;;;;;;25.72;100.00;96541.88;5051920;28;20142;-43
2022/10/02 10:20:35;;;;;;;5.13;1.90;;;;;;;25.39;100.00;96537.13;5050115;28;20080;-42
2022/10/02 10:23:41;;;;;;;7.85;2.20;;;;;;;25.39;100.00;96529.03;5051627;28;20537;-41
2022/10/02 10:26:26;;;;;;;4.60;1.95;;;;;;;26.04;100.00;96536.06;5050330;28;20088;-41
2022/10/02 10:29:20;;;;;;;3.95;1.75;;;;;;;25.72;100.00;96530.28;5044865;28;20095;-43
2022/10/02 10:32:25;;;;;;;4.25;1.70;;;;;;;26.58;93.08;96511.38;5051476;28;20640;-41
2022/10/02 10:35:23;;;;;;;4.30;1.80;;;;;;;25.58;100.00;96510.81;5051425;28;20073;-43
2022/10/02 10:41:09;;;;;;;6.32;2.42;;;;;;;26.09;90.48;96489.41;5048692;28;20083;-47
2022/10/02 10:44:20;;;;;;;4.25;1.80;;;;;;;26.64;87.10;96488.78;5029022;28;20072;-41
2022/10/02 10:46:59;;;;;;;6.20;2.15;;;;;;;26.91;89.80;96486.19;5045650;28;20136;-41
2022/10/02 10:49:46;;;;;;;5.68;1.90;;;;;;;25.22;100.00;96495.72;5051646;28;20158;-43
2022/10/02 10:52:21;;;;;;;5.22;2.03;;;;;;;26.05;100.00;96494.47;5045438;28;20439;-42
2022/10/02 10:54:56;;;;;;;4.93;1.80;;;;;;;27.71;82.49;96490.31;5046902;28;20064;-41
2022/10/02 10:57:38;;;;;;;4.28;1.80;;;;;;;27.88;80.04;96487.56;5044192;28;20073;-43
2022/10/02 11:00:15;;;;;;;6.05;1.80;;;;;;;27.40;88.18;96478.28;5043830;28;20069;-44
2022/10/02 11:03:12;;;;;;;7.13;2.00;;;;;;;27.01;95.18;96491.75;5045359;28;20041;-41
2022/10/02 11:06:20;;;;;;;5.05;2.00;;;;;;;27.47;85.76;96481.59;5043019;28;20112;-41
2022/10/02 11:09:38;;;;;;;5.88;1.95;;;;;;;27.51;84.50;96463.78;5048967;28;20073;-44
2022/10/02 11:12:54;;;;;;;5.63;2.03;;;;;;;26.79;94.17;96471.94;5046275;28;20080;-41
2022/10/02 11:15:39;;;;;;;2.30;1.67;;;;;;;26.84;92.50;96470.16;5041316;28;20080;-41
2022/10/02 11:18:15;;;;;;;4.75;2.20;;;;;;;26.68;98.30;96454.75;5046311;28;20107;-43
2022/10/02 11:21:16;;;;;;;5.38;2.20;;;;;;;27.23;94.39;96466.66;5044781;28;20064;-44
2022/10/02 11:23:47;;;;;;;;;;;;;;;27.57;85.61;96467.38;5044005;28;20476;-43
2022/10/02 11:26:32;;;;;;;4.30;2.00;;;;;;;27.54;88.29;96459.75;5045870;28;20645;-45
2022/10/02 11:29:33;;;;;;;4.22;1.67;;;;;;;28.62;74.06;96447.03;5046127;28;20064;-47
2022/10/02 11:32:13;;;;;;;5.63;1.85;;;;;;;27.99;87.17;96436.97;5043521;28;20075;-41
2022/10/02 11:35:01;;;;;;;5.55;2.13;;;;;;;28.32;79.88;96441.34;5043782;28;20095;-45
2022/10/02 11:37:42;;;;;;;4.25;2.10;;;;;;;26.92;100.00;96439.94;5047494;28;20468;-41
2022/10/02 11:40:21;;;;;;;4.15;1.75;;;;;;;27.53;89.72;96423.72;5072517;28;20069;-48
2022/10/02 11:43:12;;;;;;;5.75;2.17;;;;;;;27.24;98.78;96414.97;5044069;28;20064;-42
2022/10/02 11:46:00;;;;;;;4.82;1.88;;;;;;;26.69;100.00;96407.69;5046637;28;20081;-41
2022/10/02 11:48:55;;;;;;;3.90;1.80;;;;;;;28.58;80.76;96394.38;5045775;28;20065;-41
2022/10/02 11:51:45;;;;;;;5.05;2.08;;;;;;;27.57;94.00;96400.47;5041749;28;20072;-43
2022/10/02 11:54:36;;;;;;;4.95;1.50;;;;;;;29.12;75.24;96390.66;5045832;28;20468;-44
2022/10/02 11:57:20;;;;;;;6.43;2.40;;;;;;;29.60;70.41;96391.41;5044814;28;20077;-43
2022/10/02 12:00:08;;;;;;;6.65;2.47;;;;;;;29.53;69.46;96386.19;5043335;28;20123;-44
2022/10/02 12:02:41;;;;;;;3.03;1.50;;;;;;;29.42;68.77;96389.13;5049663;28;20519;-44
2022/10/02 12:05:22;;;;;;;5.60;1.65;;;;;;;29.24;74.58;96399.38;5049855;28;20329;-45
2022/10/02 12:07:58;;;;;;;4.45;1.80;;;;;;;29.04;74.41;96391.16;5046965;28;20501;-47
2022/10/02 12:10:41;;;;;;;4.47;1.67;;;;;;;29.33;73.02;96383.41;5043323;28;20119;-44
2022/10/02 12:13:41;;;;;;;4.75;1.80;;;;;;;29.24;71.40;96377.66;5044510;28;20083;-43
2022/10/02 12:16:17;;;;;;;3.90;1.70;;;;;;;29.75;69.06;96372.41;5043827;28;20085;-45
2022/10/02 12:18:57;;;;;;;5.63;1.70;;;;;;;29.71;70.10;96365.88;5040585;28;20083;-44
2022/10/02 12:27:32;;;;;;;4.53;1.70;;;;;;;28.74;86.02;96373.59;5045278;28;20076;-43
2022/10/02 12:30:06;;;;;;;3.42;1.42;;;;;;;28.20;92.04;96359.34;5044380;28;20076;-43
2022/10/02 12:32:56;;;;;;;2.95;1.20;;;;;;;28.00;100.00;96358.09;5043971;28;21140;-45
2022/10/02 12:35:51;;;;;;;6.38;4.10;;;;;;;27.93;100.00;96365.63;5075473;28;20072;-44
2022/10/02 12:38:27;;;;;;;6.07;1.92;;;;;;;23.78;100.00;96436.59;5045201;28;20076;-44
2022/10/02 12:41:07;;;;;;;7.25;2.55;;;;;;;23.76;100.00;96388.38;5043771;28;20076;-42